Time;durP1;ratioP1;P1;durP2;ratioP2;P2;SDS_P1;SDS_P2;PMS_P1;PMS_P2;Temp;Humidity;BMP_temperature;BMP_pressure;BME280_temperature;BME280_humidity;BME280_pressure;Samples;Min_cycle;Max_cycle;Signal;HPM_P1;HPM_P2
2023/10/21 00:02:22;;;;;;;13.55;6.80;;;;;;;;;;5054671;28;20205;-88
2023/10/21 00:04:48;;;;;;;10.00;7.18;;;;;;;;;;5037966;28;20638;-88
2023/10/21 00:07:14;;;;;;;10.85;7.30;;;;;;;;;;5037325;28;20189;-88
2023/10/21 00:09:40;;;;;;;6.93;6.05;;;;;;;;;;5037985;28;20174;-88
2023/10/21 00:12:09;;;;;;;7.43;6.53;;;;;;;;;;5037467;28;20263;-88
2023/10/21 00:14:35;;;;;;;7.38;5.75;;;;;;;;;;5037903;28;20563;-88
2023/10/21 00:17:03;;;;;;;8.38;6.32;;;;;;;;;;5037561;28;20174;-88
2023/10/21 00:19:29;;;;;;;6.60;5.73;;;;;;;;;;5037964;28;20524;-88
2023/10/21 00:21:55;;;;;;;6.57;5.97;;;;;;;;;;5037147;28;20463;-88
2023/10/21 00:24:21;;;;;;;6.10;5.40;;;;;;;;;;5055027;28;20176;-88
2023/10/21 00:26:48;;;;;;;6.87;6.17;;;;;;;;;;5037692;28;20408;-87
2023/10/21 00:29:15;;;;;;;5.97;5.35;;;;;;;;;;5037013;28;20485;-88
2023/10/21 00:31:42;;;;;;;12.73;5.57;;;;;;;;;;5037122;28;20186;-87
2023/10/21 00:34:10;;;;;;;7.47;5.25;;;;;;;;;;5036756;28;20265;-87
2023/10/21 00:36:36;;;;;;;6.28;5.68;;;;;;;;;;5054354;28;20509;-87
2023/10/21 00:39:02;;;;;;;10.80;6.03;;;;;;;;;;5037007;28;20170;-86
2023/10/21 00:41:29;;;;;;;6.75;6.03;;;;;;;;;;5035977;28;21002;-86
2023/10/21 00:43:55;;;;;;;8.27;5.78;;;;;;;;;;5036606;28;20524;-85
2023/10/21 00:46:26;;;;;;;10.15;7.13;;;;;;;;;;5035907;28;20237;-86
2023/10/21 00:48:52;;;;;;;10.03;6.40;;;;;;;;;;5035974;28;20518;-86
2023/10/21 00:51:19;;;;;;;7.20;6.47;;;;;;;;;;5036352;28;20507;-86
2023/10/21 00:53:46;;;;;;;10.05;5.93;;;;;;;;;;5054145;28;20201;-86
2023/10/21 00:56:12;;;;;;;10.73;5.70;;;;;;;;;;5035970;28;20539;-86
2023/10/21 00:58:40;;;;;;;8.43;6.43;;;;;;;;;;5020053;28;20614;-85
2023/10/21 01:01:07;;;;;;;7.50;6.80;;;;;;;;;;5019406;28;20209;-87
2023/10/21 01:03:34;;;;;;;7.03;6.32;;;;;;;;;;5035910;28;20892;-86
2023/10/21 01:06:00;;;;;;;8.40;7.22;;;;;;;;;;5019519;28;20196;-85
2023/10/21 01:08:26;;;;;;;7.90;7.10;;;;;;;;;;5035758;28;20188;-84
2023/10/21 01:10:52;;;;;;;8.95;7.50;;;;;;;;;;5035891;28;20821;-83
2023/10/21 01:13:18;;;;;;;9.32;6.90;;;;;;;;;;5035004;28;20188;-83
2023/10/21 01:15:44;;;;;;;11.05;7.45;;;;;;;;;;5019489;28;20184;-82
2023/10/21 01:18:10;;;;;;;14.73;7.33;;;;;;;;;;5035568;28;20649;-83
2023/10/21 01:20:41;;;;;;;8.73;7.03;;;;;;;;;;5036126;28;20478;-83
2023/10/21 01:23:07;;;;;;;9.45;6.57;;;;;;;;;;5036141;28;20169;-83
2023/10/21 01:25:33;;;;;;;14.13;7.30;;;;;;;;;;5019863;28;20264;-82
2023/10/21 01:27:59;;;;;;;12.33;6.00;;;;;;;;;;5019700;28;20235;-82
2023/10/21 01:30:26;;;;;;;8.83;7.07;;;;;;;;;;5053957;28;20410;-82
2023/10/21 01:32:52;;;;;;;11.00;7.17;;;;;;;;;;5036209;28;20511;-81
2023/10/21 01:35:18;;;;;;;10.60;7.33;;;;;;;;;;5019932;28;20843;-81
2023/10/21 01:37:45;;;;;;;9.30;7.80;;;;;;;;;;5053611;28;20468;-81
2023/10/21 01:40:12;;;;;;;8.43;7.00;;;;;;;;;;5035780;28;20188;-82
2023/10/21 01:42:38;;;;;;;8.35;7.55;;;;;;;;;;5036150;28;20216;-81
2023/10/21 01:45:04;;;;;;;7.77;6.80;;;;;;;;;;5053681;28;20568;-81
2023/10/21 01:47:30;;;;;;;11.10;7.83;;;;;;;;;;5035816;28;20431;-81
2023/10/21 01:49:59;;;;;;;10.57;7.63;;;;;;;;;;5054295;28;20793;-81
2023/10/21 01:52:25;;;;;;;8.80;7.90;;;;;;;;;;5054046;28;20400;-81
2023/10/21 01:54:55;;;;;;;9.90;6.97;;;;;;;;;;5054022;28;20907;-80
2023/10/21 01:57:21;;;;;;;9.60;7.00;;;;;;;;;;5053232;28;20736;-81
2023/10/21 01:59:47;;;;;;;9.13;7.57;;;;;;;;;;5035891;28;20938;-81
2023/10/21 02:02:13;;;;;;;8.00;7.20;;;;;;;;;;5053832;28;20212;-81
2023/10/21 02:04:39;;;;;;;7.40;5.37;;;;;;;;;;5035728;28;20415;-81
2023/10/21 02:07:05;;;;;;;9.70;7.00;;;;;;;;;;5054216;28;20454;-81
2023/10/21 02:09:31;;;;;;;7.30;6.43;;;;;;;;;;5030881;28;20450;-79
2023/10/21 02:11:57;;;;;;;7.77;5.60;;;;;;;;;;5075854;28;20415;-81
2023/10/21 02:14:23;;;;;;;7.75;5.38;;;;;;;;;;5058777;28;20447;-81
2023/10/21 02:16:50;;;;;;;9.53;5.57;;;;;;;;;;5053810;28;20173;-80
2023/10/21 02:19:16;;;;;;;9.17;5.60;;;;;;;;;;5035876;28;20415;-80
2023/10/21 02:21:42;;;;;;;12.30;5.30;;;;;;;;;;5036102;28;20490;-80
2023/10/21 02:24:08;;;;;;;5.13;4.60;;;;;;;;;;5053958;28;20170;-80
2023/10/21 02:26:34;;;;;;;5.30;4.80;;;;;;;;;;5038102;28;20416;-80
2023/10/21 02:29:00;;;;;;;8.90;4.63;;;;;;;;;;5039598;28;20585;-80
2023/10/21 02:31:26;;;;;;;8.10;6.07;;;;;;;;;;5057297;28;20411;-80
2023/10/21 02:33:53;;;;;;;6.13;4.60;;;;;;;;;;5040084;28;20415;-80
2023/10/21 02:36:19;;;;;;;8.77;5.53;;;;;;;;;;5039240;28;20447;-81
2023/10/21 02:38:45;;;;;;;7.70;4.53;;;;;;;;;;5038957;28;20526;-81
2023/10/21 02:41:11;;;;;;;7.05;5.45;;;;;;;;;;5039283;28;20947;-81
2023/10/21 02:43:37;;;;;;;7.20;5.17;;;;;;;;;;5039130;28;20193;-81
2023/10/21 02:46:09;;;;;;;6.28;5.68;;;;;;;;;;5038990;28;20907;-80
2023/10/21 02:48:35;;;;;;;6.22;5.60;;;;;;;;;;5039863;28;20204;-81
2023/10/21 02:51:08;;;;;;;6.40;5.60;;;;;;;;;;5039809;28;20233;-81
2023/10/21 02:53:34;;;;;;;5.40;4.90;;;;;;;;;;5057334;28;20412;-81
2023/10/21 02:56:03;;;;;;;6.10;5.20;;;;;;;;;;5038786;28;20424;-80
2023/10/21 02:58:28;;;;;;;5.57;5.07;;;;;;;;;;5038896;28;20400;-81
2023/10/21 03:00:54;;;;;;;5.90;4.80;;;;;;;;;;5022321;28;20221;-81
2023/10/21 03:03:20;;;;;;;6.10;4.70;;;;;;;;;;5056464;28;20392;-81
2023/10/21 03:05:46;;;;;;;5.40;4.40;;;;;;;;;;5039248;28;20418;-80
2023/10/21 03:08:12;;;;;;;5.67;5.13;;;;;;;;;;5038958;28;20821;-80
2023/10/21 03:10:38;;;;;;;5.40;3.90;;;;;;;;;;5056497;28;20420;-81
2023/10/21 03:13:04;;;;;;;5.27;4.70;;;;;;;;;;5056295;28;20415;-80
2023/10/21 03:15:33;;;;;;;4.60;4.20;;;;;;;;;;5021860;28;20908;-80
2023/10/21 03:17:59;;;;;;;5.37;4.13;;;;;;;;;;5038427;28;20412;-80
2023/10/21 03:20:25;;;;;;;6.17;3.80;;;;;;;;;;5038390;28;20419;-81
2023/10/21 03:22:51;;;;;;;4.57;4.07;;;;;;;;;;5038226;28;20428;-80
2023/10/21 03:25:17;;;;;;;4.90;4.50;;;;;;;;;;5055542;28;20179;-81
2023/10/21 03:27:43;;;;;;;5.00;4.47;;;;;;;;;;5022278;28;20820;-81
2023/10/21 03:30:09;;;;;;;6.32;4.43;;;;;;;;;;5038479;28;20407;-81
2023/10/21 03:32:36;;;;;;;7.93;4.20;;;;;;;;;;5037621;28;20189;-81
2023/10/21 03:35:02;;;;;;;4.53;3.47;;;;;;;;;;5056254;28;20408;-81
2023/10/21 03:37:28;;;;;;;4.47;4.07;;;;;;;;;;5056557;28;20475;-80
2023/10/21 03:39:54;;;;;;;15.80;5.80;;;;;;;;;;5022563;28;20417;-80
2023/10/21 03:42:21;;;;;;;5.10;4.47;;;;;;;;;;5038532;28;20562;-81
2023/10/21 03:44:46;;;;;;;5.07;4.35;;;;;;;;;;5038330;28;20418;-81
2023/10/21 03:47:12;;;;;;;5.10;4.53;;;;;;;;;;5048366;28;20318;-81
2023/10/21 03:49:38;;;;;;;4.93;4.50;;;;;;;;;;5037407;28;20432;-81
2023/10/21 03:52:04;;;;;;;7.10;4.33;;;;;;;;;;5025115;28;20425;-81
2023/10/21 03:54:30;;;;;;;10.10;5.17;;;;;;;;;;5049262;28;20447;-81
2023/10/21 03:56:58;;;;;;;5.20;4.50;;;;;;;;;;5021424;28;20496;-81
2023/10/21 03:59:24;;;;;;;5.20;4.37;;;;;;;;;;5037964;28;20868;-81
2023/10/21 04:01:50;;;;;;;5.63;4.30;;;;;;;;;;5021055;28;20475;-81
2023/10/21 04:04:16;;;;;;;4.90;3.70;;;;;;;;;;5037790;28;20852;-82
2023/10/21 04:06:42;;;;;;;4.13;3.73;;;;;;;;;;5037368;28;20420;-81
2023/10/21 04:09:09;;;;;;;6.53;3.53;;;;;;;;;;5037308;28;20433;-81
2023/10/21 04:11:35;;;;;;;4.18;3.35;;;;;;;;;;5020852;28;20413;-81
2023/10/21 04:14:01;;;;;;;4.87;3.70;;;;;;;;;;5055212;28;20222;-81
2023/10/21 04:16:28;;;;;;;3.88;3.45;;;;;;;;;;5054930;28;20799;-81
2023/10/21 04:18:53;;;;;;;3.60;3.15;;;;;;;;;;5055000;28;20173;-81
2023/10/21 04:21:20;;;;;;;3.67;2.53;;;;;;;;;;5036542;28;20212;-81
2023/10/21 04:23:46;;;;;;;3.97;3.20;;;;;;;;;;5055286;28;20404;-81
2023/10/21 04:26:12;;;;;;;3.67;3.27;;;;;;;;;;5037235;28;20490;-81
2023/10/21 04:28:38;;;;;;;3.37;3.10;;;;;;;;;;5029885;28;20483;-81
2023/10/21 04:31:04;;;;;;;3.43;3.00;;;;;;;;;;5072123;28;20414;-81
2023/10/21 04:33:30;;;;;;;3.00;2.63;;;;;;;;;;5056708;28;20451;-81
2023/10/21 04:35:56;;;;;;;3.90;3.37;;;;;;;;;;5036838;28;20443;-81
2023/10/21 04:38:22;;;;;;;3.73;3.23;;;;;;;;;;5035852;28;20987;-82
2023/10/21 04:40:48;;;;;;;3.47;3.00;;;;;;;;;;5036682;28;20467;-81
2023/10/21 04:43:14;;;;;;;5.97;3.47;;;;;;;;;;5054191;28;20408;-81
2023/10/21 04:45:40;;;;;;;2.80;2.50;;;;;;;;;;5019770;28;20935;-81
2023/10/21 04:48:07;;;;;;;4.97;3.30;;;;;;;;;;5019415;28;20912;-81
2023/10/21 04:50:33;;;;;;;2.90;2.60;;;;;;;;;;5052530;28;20565;-81
2023/10/21 04:52:59;;;;;;;4.00;3.00;;;;;;;;;;5054360;28;20271;-81
2023/10/21 04:55:26;;;;;;;6.18;2.80;;;;;;;;;;5020078;28;20408;-82
2023/10/21 04:57:52;;;;;;;4.07;2.70;;;;;;;;;;5054330;28;20173;-81
2023/10/21 05:00:18;;;;;;;2.10;1.90;;;;;;;;;;5054169;28;20549;-81
2023/10/21 05:02:44;;;;;;;2.40;2.10;;;;;;;;;;5036185;28;20416;-81
2023/10/21 05:05:12;;;;;;;3.63;2.27;;;;;;;;;;5019740;28;20699;-81
2023/10/21 05:07:38;;;;;;;2.53;2.33;;;;;;;;;;5036150;28;20432;-82
2023/10/21 05:10:04;;;;;;;2.53;2.33;;;;;;;;;;5036177;28;20477;-80
2023/10/21 05:12:30;;;;;;;2.38;2.17;;;;;;;;;;5036080;28;20434;-81
2023/10/21 05:14:56;;;;;;;3.53;3.17;;;;;;;;;;5036279;28;20186;-81
2023/10/21 05:17:22;;;;;;;3.10;2.90;;;;;;;;;;5053651;28;20413;-82
2023/10/21 05:19:48;;;;;;;2.70;2.50;;;;;;;;;;5035933;28;20581;-81
2023/10/21 05:22:14;;;;;;;4.27;2.70;;;;;;;;;;5036196;28;20830;-81
2023/10/21 05:24:40;;;;;;;3.63;3.27;;;;;;;;;;5035932;28;20482;-82
2023/10/21 05:27:06;;;;;;;2.35;2.15;;;;;;;;;;5054015;28;20427;-81
2023/10/21 05:29:32;;;;;;;2.77;2.30;;;;;;;;;;5019810;28;20189;-82
2023/10/21 05:31:59;;;;;;;2.57;2.20;;;;;;;;;;5053640;28;20553;-82
2023/10/21 05:34:25;;;;;;;6.88;2.53;;;;;;;;;;5035632;28;20416;-82
2023/10/21 05:36:51;;;;;;;3.50;2.50;;;;;;;;;;5019027;28;20242;-81
2023/10/21 05:39:18;;;;;;;8.37;3.00;;;;;;;;;;5036226;28;20458;-82
2023/10/21 05:41:44;;;;;;;2.40;2.20;;;;;;;;;;5019446;28;20479;-82
2023/10/21 05:44:10;;;;;;;2.67;2.17;;;;;;;;;;5019060;28;20183;-82
2023/10/21 05:46:36;;;;;;;2.63;2.43;;;;;;;;;;5035861;28;20419;-82
2023/10/21 05:49:02;;;;;;;4.07;2.33;;;;;;;;;;5036005;28;20462;-82
2023/10/21 05:51:29;;;;;;;4.93;2.42;;;;;;;;;;5035694;28;20194;-83
2023/10/21 05:53:55;;;;;;;4.22;2.88;;;;;;;;;;5036345;28;20178;-82
2023/10/21 05:56:21;;;;;;;2.77;2.57;;;;;;;;;;5010472;28;20197;-82
2023/10/21 05:58:47;;;;;;;2.50;2.10;;;;;;;;;;5032834;28;20961;-82
2023/10/21 06:01:13;;;;;;;2.73;2.53;;;;;;;;;;5019482;28;20476;-82
2023/10/21 06:03:39;;;;;;;2.80;2.60;;;;;;;;;;5036675;28;20911;-82
2023/10/21 06:06:06;;;;;;;2.80;2.20;;;;;;;;;;5028029;28;20442;-82
2023/10/21 06:08:32;;;;;;;2.72;2.40;;;;;;;;;;5019478;28;20183;-83
2023/10/21 06:10:58;;;;;;;3.80;2.47;;;;;;;;;;5038719;28;20225;-82
2023/10/21 06:13:27;;;;;;;2.17;1.98;;;;;;;;;;5039199;28;20274;-82
2023/10/21 06:15:53;;;;;;;3.00;2.05;;;;;;;;;;5038951;28;20546;-83
2023/10/21 06:18:20;;;;;;;2.00;1.80;;;;;;;;;;5039134;28;20185;-83
2023/10/21 06:20:47;;;;;;;2.03;1.70;;;;;;;;;;5038658;28;20494;-83
2023/10/21 06:23:13;;;;;;;2.17;1.98;;;;;;;;;;5039163;28;20231;-83
2023/10/21 06:25:39;;;;;;;2.70;2.30;;;;;;;;;;5022461;28;20550;-83
2023/10/21 06:28:05;;;;;;;6.93;2.30;;;;;;;;;;5022764;28;20779;-83
2023/10/21 06:30:31;;;;;;;2.73;2.20;;;;;;;;;;5039655;28;20187;-83
2023/10/21 06:32:57;;;;;;;2.60;2.20;;;;;;;;;;5019517;28;20432;-83
2023/10/21 06:35:23;;;;;;;3.10;2.53;;;;;;;;;;5036794;28;20823;-84
2023/10/21 06:37:49;;;;;;;3.00;1.80;;;;;;;;;;5019453;28;20519;-83
2023/10/21 06:40:15;;;;;;;2.88;1.98;;;;;;;;;;5019462;28;20496;-83
2023/10/21 06:42:42;;;;;;;5.63;2.00;;;;;;;;;;5019599;28;20237;-78
2023/10/21 06:45:09;;;;;;;3.73;2.27;;;;;;;;;;5037687;28;20401;-78
2023/10/21 06:47:35;;;;;;;1.80;1.40;;;;;;;;;;5047492;28;20420;-78
2023/10/21 06:50:01;;;;;;;1.90;1.70;;;;;;;;;;5066893;28;20181;-78
2023/10/21 06:52:27;;;;;;;2.03;1.37;;;;;;;;;;5023126;28;20510;-80
2023/10/21 06:54:53;;;;;;;1.67;1.30;;;;;;;;;;5057883;28;20413;-78
2023/10/21 06:57:22;;;;;;;2.20;1.20;;;;;;;;;;5039635;28;20432;-77
2023/10/21 06:59:48;;;;;;;1.13;0.90;;;;;;;;;;5040215;28;20423;-77
2023/10/21 07:02:14;;;;;;;1.15;0.95;;;;;;;;;;5039364;28;20475;-77
2023/10/21 07:04:40;;;;;;;1.00;0.80;;;;;;;;;;5057237;28;20652;-78
2023/10/21 07:07:06;;;;;;;1.40;0.90;;;;;;;;;;5039659;28;20435;-77
2023/10/21 07:09:32;;;;;;;1.00;0.70;;;;;;;;;;5057344;28;20412;-78
2023/10/21 07:11:58;;;;;;;0.70;0.60;;;;;;;;;;5056535;28;20419;-78
2023/10/21 07:14:24;;;;;;;1.40;0.80;;;;;;;;;;5056959;28;20469;-78
2023/10/21 07:16:50;;;;;;;0.80;0.70;;;;;;;;;;5038862;28;20440;-78
2023/10/21 07:19:16;;;;;;;1.43;0.87;;;;;;;;;;5057148;28;20400;-78
2023/10/21 07:21:42;;;;;;;0.67;0.50;;;;;;;;;;5038794;28;20467;-78
2023/10/21 07:24:11;;;;;;;0.70;0.50;;;;;;;;;;5039089;28;20420;-78
2023/10/21 07:26:37;;;;;;;0.97;0.63;;;;;;;;;;5024245;28;20478;-79
2023/10/21 07:29:03;;;;;;;1.33;0.70;;;;;;;;;;5018667;28;20992;-78
2023/10/21 07:31:29;;;;;;;2.63;0.53;;;;;;;;;;5037393;28;20458;-80
2023/10/21 07:33:55;;;;;;;1.35;0.60;;;;;;;;;;5037277;28;20412;-79
2023/10/21 07:36:21;;;;;;;0.80;0.53;;;;;;;;;;5035702;28;20193;-79
2023/10/21 07:38:47;;;;;;;0.80;0.50;;;;;;;;;;5015335;28;20552;-77
2023/10/21 07:41:14;;;;;;;1.97;0.57;;;;;;;;;;5016699;28;20483;-77
2023/10/21 07:43:40;;;;;;;2.00;0.50;;;;;;;;;;5017118;28;20417;-77
2023/10/21 07:46:05;;;;;;;2.40;0.50;;;;;;;;;;5016164;28;20405;-77
2023/10/21 07:48:31;;;;;;;1.27;0.60;;;;;;;;;;5017130;28;20427;-77
2023/10/21 07:50:58;;;;;;;0.80;0.50;;;;;;;;;;5016643;28;20848;-79
2023/10/21 07:53:24;;;;;;;0.90;0.60;;;;;;;;;;5014715;28;20920;-79
2023/10/21 07:55:50;;;;;;;0.60;0.50;;;;;;;;;;5015250;28;20406;-80
2023/10/21 07:58:16;;;;;;;1.47;0.50;;;;;;;;;;5030938;28;20507;-80
2023/10/21 08:00:43;;;;;;;1.57;0.50;;;;;;;;;;5030687;28;20410;-79
2023/10/21 08:03:09;;;;;;;2.60;0.60;;;;;;;;;;5030963;28;20443;-80
2023/10/21 08:05:34;;;;;;;1.53;0.60;;;;;;;;;;5031114;28;20601;-79
2023/10/21 08:08:00;;;;;;;0.70;0.60;;;;;;;;;;5020203;28;20431;-80
2023/10/21 08:10:26;;;;;;;0.70;0.50;;;;;;;;;;5035375;28;20413;-79
2023/10/21 08:12:52;;;;;;;3.93;0.50;;;;;;;;;;5035512;28;20655;-79
2023/10/21 08:15:18;;;;;;;0.70;0.50;;;;;;;;;;5035986;28;20416;-79
2023/10/21 08:17:44;;;;;;;0.70;0.50;;;;;;;;;;5034193;28;20917;-79
2023/10/21 08:20:10;;;;;;;1.13;0.60;;;;;;;;;;5034218;28;20437;-80
2023/10/21 08:22:36;;;;;;;0.87;0.50;;;;;;;;;;5033767;28;20472;-80
2023/10/21 08:25:02;;;;;;;0.60;0.47;;;;;;;;;;5035706;28;20492;-80
2023/10/21 08:27:28;;;;;;;1.83;0.50;;;;;;;;;;5033647;28;20439;-80
2023/10/21 08:29:54;;;;;;;0.90;0.60;;;;;;;;;;5033562;28;20507;-80
2023/10/21 08:32:20;;;;;;;1.63;0.90;;;;;;;;;;5034217;28;20486;-80
2023/10/21 08:34:46;;;;;;;1.20;0.60;;;;;;;;;;5013866;28;20432;-80
2023/10/21 08:37:15;;;;;;;1.40;0.57;;;;;;;;;;5022920;28;20818;-80
2023/10/21 08:39:43;;;;;;;1.20;0.93;;;;;;;;;;5017158;28;20429;-81
2023/10/21 08:42:09;;;;;;;3.70;0.70;;;;;;;;;;5017627;28;20465;-81
2023/10/21 08:44:36;;;;;;;1.10;0.80;;;;;;;;;;5032700;28;20776;-81
2023/10/21 08:47:04;;;;;;;1.73;0.67;;;;;;;;;;5032469;28;21078;-80
2023/10/21 08:49:31;;;;;;;1.50;0.50;;;;;;;;;;5034405;28;20401;-80
2023/10/21 08:51:59;;;;;;;0.97;0.63;;;;;;;;;;5033701;28;20769;-80
2023/10/21 08:54:26;;;;;;;1.33;0.77;;;;;;;;;;5034351;28;20404;-81
2023/10/21 08:56:52;;;;;;;1.00;0.60;;;;;;;;;;5034311;28;20405;-80
2023/10/21 08:59:18;;;;;;;1.13;0.60;;;;;;;;;;5033370;28;20423;-81
2023/10/21 09:01:45;;;;;;;2.73;0.80;;;;;;;;;;5033725;28;20494;-80
2023/10/21 09:04:12;;;;;;;3.57;0.60;;;;;;;;;;5051513;28;20425;-79
2023/10/21 09:06:54;;;;;;;1.30;0.70;;;;;;;;;;5053213;28;20453;-80
2023/10/21 09:09:26;;;;;;;1.57;0.93;;;;;;;;;;5036959;28;20421;-81
2023/10/21 09:12:17;;;;;;;2.30;0.70;;;;;;;;;;5033943;28;20408;-81
2023/10/21 09:14:57;;;;;;;1.80;0.83;;;;;;;;;;5032983;28;20440;-81
2023/10/21 09:17:34;;;;;;;5.70;0.70;;;;;;;;;;5033640;28;20424;-81
2023/10/21 09:20:00;;;;;;;1.20;0.70;;;;;;;;;;5034225;28;20972;-81
2023/10/21 09:22:27;;;;;;;1.33;0.63;;;;;;;;;;5034717;28;20468;-81
2023/10/21 09:25:09;;;;;;;2.30;0.53;;;;;;;;;;5032777;28;20492;-81
2023/10/21 09:27:35;;;;;;;1.73;0.50;;;;;;;;;;5032877;28;20470;-81
2023/10/21 09:30:01;;;;;;;2.40;0.90;;;;;;;;;;5034118;28;20815;-81
2023/10/21 09:32:28;;;;;;;0.97;0.80;;;;;;;;;;5033019;28;20536;-81
2023/10/21 09:35:02;;;;;;;2.90;1.00;;;;;;;;;;5018257;28;20424;-82
2023/10/21 09:37:29;;;;;;;1.20;0.73;;;;;;;;;;5045582;28;20513;-82
2023/10/21 09:39:55;;;;;;;1.23;0.60;;;;;;;;;;5022980;28;20787;-82
2023/10/21 09:42:21;;;;;;;2.90;0.90;;;;;;;;;;5038857;28;20468;-81
2023/10/21 09:44:48;;;;;;;3.13;0.80;;;;;;;;;;5039323;28;20415;-81
2023/10/21 09:47:15;;;;;;;2.40;0.80;;;;;;;;;;5023267;28;20495;-82
2023/10/21 09:49:42;;;;;;;2.03;0.70;;;;;;;;;;5039558;28;20950;-82
2023/10/21 09:52:11;;;;;;;1.63;0.70;;;;;;;;;;5040013;28;20415;-81
2023/10/21 09:54:43;;;;;;;2.10;0.80;;;;;;;;;;5039332;28;20878;-81
2023/10/21 09:57:13;;;;;;;1.80;0.90;;;;;;;;;;5039466;28;20423;-82
2023/10/21 09:59:40;;;;;;;3.27;1.10;;;;;;;;;;5057049;28;20396;-82
2023/10/21 10:02:09;;;;;;;2.00;0.70;;;;;;;;;;5056659;28;20438;-82
2023/10/21 10:04:36;;;;;;;1.60;0.73;;;;;;;;;;5039070;28;20415;-82
2023/10/21 10:07:09;;;;;;;2.17;0.73;;;;;;;;;;5039970;28;20436;-82
2023/10/21 10:09:39;;;;;;;2.50;0.90;;;;;;;;;;5037147;28;21105;-83
2023/10/21 10:12:10;;;;;;;1.70;0.70;;;;;;;;;;5044466;28;20494;-82
2023/10/21 10:14:37;;;;;;;1.93;0.90;;;;;;;;;;5023373;28;20909;-82
2023/10/21 10:17:06;;;;;;;2.20;1.10;;;;;;;;;;5036647;28;20871;-81
2023/10/21 10:19:42;;;;;;;0.90;0.60;;;;;;;;;;5037115;28;20409;-82
2023/10/21 10:22:27;;;;;;;5.73;1.80;;;;;;;;;;5018437;28;20443;-81
2023/10/21 10:24:57;;;;;;;0.90;0.60;;;;;;;;;;5036319;28;20533;-81
2023/10/21 10:27:40;;;;;;;2.10;0.70;;;;;;;;;;5045854;28;20957;-82
2023/10/21 10:30:19;;;;;;;0.83;0.70;;;;;;;;;;5056894;28;20446;-82
2023/10/21 10:32:47;;;;;;;2.03;0.90;;;;;;;;;;5056904;28;20400;-84
2023/10/21 10:35:34;;;;;;;2.30;1.10;;;;;;;;;;5057046;28;20902;-85
2023/10/21 10:38:00;;;;;;;1.23;0.70;;;;;;;;;;5038871;28;20550;-83
2023/10/21 10:40:34;;;;;;;4.87;1.10;;;;;;;;;;5039980;28;20412;-83
2023/10/21 10:43:00;;;;;;;2.83;0.83;;;;;;;;;;5038450;28;20427;-82
2023/10/21 10:45:26;;;;;;;2.27;0.97;;;;;;;;;;5055936;28;20411;-81
2023/10/21 10:48:11;;;;;;;2.13;0.93;;;;;;;;;;5056009;28;20388;-81
2023/10/21 10:50:37;;;;;;;3.17;0.87;;;;;;;;;;5055149;28;20851;-83
2023/10/21 10:53:14;;;;;;;2.60;0.60;;;;;;;;;;5037853;28;20466;-82
2023/10/21 10:55:42;;;;;;;2.80;0.87;;;;;;;;;;5055058;28;20412;-82
2023/10/21 10:58:08;;;;;;;1.97;0.90;;;;;;;;;;5056462;28;20462;-83
2023/10/21 11:00:34;;;;;;;1.00;0.60;;;;;;;;;;5054673;28;20515;-81
2023/10/21 11:03:00;;;;;;;2.33;0.80;;;;;;;;;;5038012;28;20500;-85
2023/10/21 11:05:28;;;;;;;3.63;0.77;;;;;;;;;;5054551;28;20415;-84
2023/10/21 11:07:55;;;;;;;1.97;0.77;;;;;;;;;;5038729;28;20892;-81
2023/10/21 11:10:23;;;;;;;1.50;0.90;;;;;;;;;;5056496;28;20408;-85
2023/10/21 11:12:53;;;;;;;1.53;0.83;;;;;;;;;;5037685;28;20907;-85
2023/10/21 11:15:20;;;;;;;2.70;1.20;;;;;;;;;;5055148;28;20419;-85
2023/10/21 11:17:51;;;;;;;4.07;0.90;;;;;;;;;;5055516;28;20407;-84
2023/10/21 11:20:19;;;;;;;1.90;0.90;;;;;;;;;;5041907;28;20398;-83
2023/10/21 11:22:45;;;;;;;4.87;0.90;;;;;;;;;;5047406;28;20601;-84
2023/10/21 11:25:11;;;;;;;3.67;1.27;;;;;;;;;;5025116;28;20420;-83
2023/10/21 11:27:40;;;;;;;2.53;1.00;;;;;;;;;;5056792;28;20492;-83
2023/10/21 11:30:10;;;;;;;2.93;0.90;;;;;;;;;;5056116;28;20443;-88
2023/10/21 11:32:40;;;;;;;4.77;1.20;;;;;;;;;;5021353;28;20424;-86
2023/10/21 11:35:12;;;;;;;3.47;1.20;;;;;;;;;;5037838;28;20398;-85
2023/10/21 11:37:38;;;;;;;2.80;1.13;;;;;;;;;;5038011;28;20566;-85
2023/10/21 11:40:05;;;;;;;1.57;0.90;;;;;;;;;;5037393;28;20398;-86
2023/10/21 11:42:32;;;;;;;2.97;1.40;;;;;;;;;;5055631;28;20463;-87
2023/10/21 11:44:59;;;;;;;5.97;1.50;;;;;;;;;;5055605;28;20439;-87
2023/10/21 11:47:29;;;;;;;1.70;1.00;;;;;;;;;;5037436;28;20493;-87
2023/10/21 11:49:55;;;;;;;3.20;1.37;;;;;;;;;;5055240;28;20392;-87
2023/10/21 11:52:32;;;;;;;4.07;0.90;;;;;;;;;;5055506;28;20404;-84
2023/10/21 11:57:46;;;;;;;4.37;1.00;;;;;;;;;;5054561;28;20404;-86
2023/10/21 12:14:26;;;;;;;4.60;1.30;;;;;;;;;;5055191;28;20384;-83
2023/10/21 12:35:32;;;;;;;4.93;1.67;;;;;;;;;;5054534;28;20383;-83
2023/10/21 12:40:31;;;;;;;7.07;2.47;;;;;;;;;;5037361;28;20413;-83
2023/10/21 12:45:46;;;;;;;5.40;1.37;;;;;;;;;;5054327;28;20756;-83
2023/10/21 12:48:19;;;;;;;4.93;1.73;;;;;;;;;;5054222;28;20483;-82
2023/10/21 12:50:46;;;;;;;6.37;1.73;;;;;;;;;;5037040;28;20408;-83
2023/10/21 12:53:12;;;;;;;3.40;1.50;;;;;;;;;;5035853;28;20500;-83
2023/10/21 12:55:39;;;;;;;5.03;1.37;;;;;;;;;;5035541;28;20426;-84
2023/10/21 12:58:05;;;;;;;3.80;1.60;;;;;;;;;;5035265;28;20450;-84
2023/10/21 13:00:32;;;;;;;4.73;1.43;;;;;;;;;;5036195;28;20932;-83
2023/10/21 13:02:58;;;;;;;3.30;1.10;;;;;;;;;;5035354;28;20507;-83
2023/10/21 13:05:24;;;;;;;2.90;1.20;;;;;;;;;;5053194;28;20473;-83
2023/10/21 13:07:50;;;;;;;4.47;1.57;;;;;;;;;;5035053;28;20765;-83
2023/10/21 13:10:17;;;;;;;2.70;1.20;;;;;;;;;;5034729;28;20999;-85
2023/10/21 13:12:43;;;;;;;6.73;1.37;;;;;;;;;;5018645;28;20491;-84
2023/10/21 13:15:11;;;;;;;2.30;1.40;;;;;;;;;;5035243;28;20461;-83
2023/10/21 13:17:37;;;;;;;5.13;1.77;;;;;;;;;;5036139;28;20417;-83
2023/10/21 13:20:04;;;;;;;5.80;1.30;;;;;;;;;;5053195;28;20374;-84
2023/10/21 13:22:32;;;;;;;2.80;1.23;;;;;;;;;;5035336;28;20471;-84
2023/10/21 13:25:00;;;;;;;3.70;2.00;;;;;;;;;;5034879;28;20795;-84
2023/10/21 13:27:25;;;;;;;3.80;1.10;;;;;;;;;;5053018;28;20923;-84
2023/10/21 13:29:51;;;;;;;4.40;1.40;;;;;;;;;;5034768;28;20490;-82
2023/10/21 13:32:17;;;;;;;3.03;1.50;;;;;;;;;;5053107;28;20412;-84
2023/10/21 13:34:43;;;;;;;8.30;1.63;;;;;;;;;;5053131;28;20811;-83
2023/10/21 13:37:09;;;;;;;4.60;1.53;;;;;;;;;;5035716;28;20482;-83
2023/10/21 13:39:35;;;;;;;2.90;1.40;;;;;;;;;;5059589;28;20383;-83
2023/10/21 13:42:05;;;;;;;2.93;1.10;;;;;;;;;;5037416;28;20438;-83
2023/10/21 13:44:34;;;;;;;3.90;1.23;;;;;;;;;;5053327;28;20382;-83
2023/10/21 13:47:00;;;;;;;4.43;1.33;;;;;;;;;;5035385;28;20431;-83
2023/10/21 13:49:26;;;;;;;4.73;1.50;;;;;;;;;;5035330;28;20391;-83
2023/10/21 13:51:52;;;;;;;3.40;1.40;;;;;;;;;;5053124;28;20899;-82
2023/10/21 13:54:19;;;;;;;2.03;1.50;;;;;;;;;;5035283;28;20406;-81
2023/10/21 13:56:45;;;;;;;2.43;1.23;;;;;;;;;;5035595;28;20474;-81
2023/10/21 13:59:14;;;;;;;2.20;1.10;;;;;;;;;;5018824;28;20819;-82
2023/10/21 14:01:43;;;;;;;3.13;1.03;;;;;;;;;;5035339;28;20529;-83
2023/10/21 14:04:10;;;;;;;1.70;0.90;;;;;;;;;;5052898;28;20378;-83
2023/10/21 14:06:38;;;;;;;3.87;1.63;;;;;;;;;;5035688;28;20411;-83
2023/10/21 14:09:05;;;;;;;4.20;1.50;;;;;;;;;;5052752;28;20410;-82
2023/10/21 14:11:33;;;;;;;5.20;1.40;;;;;;;;;;5035169;28;20402;-82
2023/10/21 14:13:59;;;;;;;2.00;0.90;;;;;;;;;;5035323;28;20391;-82
2023/10/21 14:16:25;;;;;;;2.50;1.13;;;;;;;;;;5023737;28;20387;-83
2023/10/21 14:18:51;;;;;;;15.33;5.90;;;;;;;;;;5016229;28;20442;-82
2023/10/21 14:21:17;;;;;;;5.73;2.40;;;;;;;;;;5017154;28;20472;-82
2023/10/21 14:23:43;;;;;;;4.43;1.87;;;;;;;;;;5036998;28;20910;-82
2023/10/21 14:26:11;;;;;;;3.70;2.30;;;;;;;;;;5036684;28;20408;-82
2023/10/21 14:28:38;;;;;;;4.40;2.00;;;;;;;;;;5036717;28;20408;-82
2023/10/21 14:31:06;;;;;;;3.80;1.60;;;;;;;;;;5036704;28;20909;-82
2023/10/21 14:33:33;;;;;;;3.23;1.70;;;;;;;;;;5036615;28;20380;-82
2023/10/21 14:36:06;;;;;;;2.90;0.87;;;;;;;;;;5036029;28;20400;-82
2023/10/21 14:38:33;;;;;;;4.90;1.43;;;;;;;;;;5018611;28;20501;-82
2023/10/21 14:40:59;;;;;;;4.57;1.30;;;;;;;;;;5036446;28;20804;-82
2023/10/21 14:43:25;;;;;;;4.57;1.63;;;;;;;;;;5036382;28;20820;-82
2023/10/21 14:45:51;;;;;;;3.90;1.33;;;;;;;;;;5019022;28;20430;-82
2023/10/21 14:48:20;;;;;;;2.23;1.20;;;;;;;;;;5035042;28;20487;-82
2023/10/21 14:50:48;;;;;;;2.20;1.00;;;;;;;;;;5045920;28;20395;-81
2023/10/21 14:53:14;;;;;;;4.73;1.20;;;;;;;;;;5055929;28;20410;-82
2023/10/21 14:55:42;;;;;;;3.90;1.30;;;;;;;;;;5056383;28;20402;-82
2023/10/21 14:58:08;;;;;;;3.40;1.50;;;;;;;;;;5037900;28;20499;-82
2023/10/21 15:00:35;;;;;;;3.87;1.20;;;;;;;;;;5055940;28;20386;-84
2023/10/21 15:03:02;;;;;;;1.80;1.10;;;;;;;;;;5055459;28;20536;-84
2023/10/21 15:05:28;;;;;;;3.00;1.57;;;;;;;;;;5038022;28;20879;-85
2023/10/21 15:07:54;;;;;;;4.50;1.70;;;;;;;;;;5037994;28;20441;-83
2023/10/21 15:10:21;;;;;;;4.93;1.40;;;;;;;;;;5037808;28;20788;-83
2023/10/21 15:12:48;;;;;;;5.53;1.43;;;;;;;;;;5037935;28;20406;-83
2023/10/21 15:15:14;;;;;;;2.73;1.20;;;;;;;;;;5055740;28;20415;-82
2023/10/21 15:17:41;;;;;;;4.30;1.20;;;;;;;;;;5038118;28;20424;-80
2023/10/21 15:20:08;;;;;;;3.60;1.60;;;;;;;;;;5055720;28;20392;-83
2023/10/21 15:22:34;;;;;;;2.87;1.37;;;;;;;;;;5055429;28;20517;-80
2023/10/21 15:25:00;;;;;;;6.47;1.40;;;;;;;;;;5055345;28;20458;-80